sensor_id;sensor_type;location;lat;lon;timestamp;P1;durP1;ratioP1;P2;durP2;ratioP2
71435;SDS011;59251;51.326;12.370;2022-07-29T00:02:12;5.75;;;1.30;;
71435;SDS011;59251;51.326;12.370;2022-07-29T00:04:37;6.50;;;1.20;;
71435;SDS011;59251;51.326;12.370;2022-07-29T00:07:03;6.87;;;1.17;;
71435;SDS011;59251;51.326;12.370;2022-07-29T00:09:29;7.13;;;1.30;;
71435;SDS011;59251;51.326;12.370;2022-07-29T00:11:55;7.03;;;1.58;;
71435;SDS011;59251;51.326;12.370;2022-07-29T00:14:23;6.60;;;1.23;;
71435;SDS011;59251;51.326;12.370;2022-07-29T00:16:48;7.87;;;1.53;;
71435;SDS011;59251;51.326;12.370;2022-07-29T00:19:14;8.10;;;1.40;;
71435;SDS011;59251;51.326;12.370;2022-07-29T00:21:39;6.27;;;1.20;;
71435;SDS011;59251;51.326;12.370;2022-07-29T00:24:04;8.23;;;1.20;;
71435;SDS011;59251;51.326;12.370;2022-07-29T00:26:30;6.30;;;1.27;;
71435;SDS011;59251;51.326;12.370;2022-07-29T00:28:58;6.45;;;1.23;;
71435;SDS011;59251;51.326;12.370;2022-07-29T00:31:24;6.93;;;1.20;;
71435;SDS011;59251;51.326;12.370;2022-07-29T00:33:49;9.23;;;1.20;;
71435;SDS011;59251;51.326;12.370;2022-07-29T00:36:15;11.10;;;1.70;;
71435;SDS011;59251;51.326;12.370;2022-07-29T00:38:40;6.75;;;1.30;;
71435;SDS011;59251;51.326;12.370;2022-07-29T00:41:09;7.55;;;1.20;;
71435;SDS011;59251;51.326;12.370;2022-07-29T00:43:34;5.10;;;1.20;;
71435;SDS011;59251;51.326;12.370;2022-07-29T00:46:00;6.83;;;1.77;;
71435;SDS011;59251;51.326;12.370;2022-07-29T00:48:25;8.57;;;1.40;;
71435;SDS011;59251;51.326;12.370;2022-07-29T00:50:51;7.65;;;1.40;;
71435;SDS011;59251;51.326;12.370;2022-07-29T00:53:16;5.97;;;1.10;;
71435;SDS011;59251;51.326;12.370;2022-07-29T00:55:42;6.90;;;1.40;;
71435;SDS011;59251;51.326;12.370;2022-07-29T00:58:07;7.60;;;1.40;;
71435;SDS011;59251;51.326;12.370;2022-07-29T01:00:33;11.10;;;1.27;;
71435;SDS011;59251;51.326;12.370;2022-07-29T01:02:59;6.28;;;1.40;;
71435;SDS011;59251;51.326;12.370;2022-07-29T01:05:25;7.20;;;1.70;;
71435;SDS011;59251;51.326;12.370;2022-07-29T01:07:53;6.93;;;1.30;;
71435;SDS011;59251;51.326;12.370;2022-07-29T01:10:19;10.40;;;1.77;;
71435;SDS011;59251;51.326;12.370;2022-07-29T01:12:47;6.80;;;1.47;;
71435;SDS011;59251;51.326;12.370;2022-07-29T01:15:14;9.05;;;1.23;;
71435;SDS011;59251;51.326;12.370;2022-07-29T01:31:54;6.50;;;1.30;;
71435;SDS011;59251;51.326;12.370;2022-07-29T01:34:25;6.38;;;1.67;;
71435;SDS011;59251;51.326;12.370;2022-07-29T01:37:04;6.75;;;1.35;;
71435;SDS011;59251;51.326;12.370;2022-07-29T01:39:38;6.37;;;1.40;;
71435;SDS011;59251;51.326;12.370;2022-07-29T01:44:59;7.75;;;1.80;;
71435;SDS011;59251;51.326;12.370;2022-07-29T01:47:38;8.65;;;1.50;;
71435;SDS011;59251;51.326;12.370;2022-07-29T01:50:10;7.45;;;1.42;;
71435;SDS011;59251;51.326;12.370;2022-07-29T01:52:42;6.53;;;1.60;;
71435;SDS011;59251;51.326;12.370;2022-07-29T01:55:15;7.07;;;1.40;;
71435;SDS011;59251;51.326;12.370;2022-07-29T01:57:42;7.22;;;1.95;;
71435;SDS011;59251;51.326;12.370;2022-07-29T02:00:10;6.88;;;1.60;;
71435;SDS011;59251;51.326;12.370;2022-07-29T02:02:40;6.43;;;1.20;;
71435;SDS011;59251;51.326;12.370;2022-07-29T02:05:09;8.80;;;1.70;;
71435;SDS011;59251;51.326;12.370;2022-07-29T02:07:37;7.57;;;1.90;;
71435;SDS011;59251;51.326;12.370;2022-07-29T02:10:05;8.27;;;1.70;;
71435;SDS011;59251;51.326;12.370;2022-07-29T02:12:32;7.18;;;1.40;;
71435;SDS011;59251;51.326;12.370;2022-07-29T02:15:00;7.10;;;1.50;;
71435;SDS011;59251;51.326;12.370;2022-07-29T02:17:29;7.00;;;1.80;;
71435;SDS011;59251;51.326;12.370;2022-07-29T02:19:59;7.00;;;1.52;;
71435;SDS011;59251;51.326;12.370;2022-07-29T02:22:26;6.55;;;1.40;;
71435;SDS011;59251;51.326;12.370;2022-07-29T02:24:54;8.10;;;1.52;;
71435;SDS011;59251;51.326;12.370;2022-07-29T02:27:20;8.50;;;1.45;;
71435;SDS011;59251;51.326;12.370;2022-07-29T02:29:48;9.13;;;1.57;;
71435;SDS011;59251;51.326;12.370;2022-07-29T02:32:15;9.50;;;1.73;;
71435;SDS011;59251;51.326;12.370;2022-07-29T02:34:42;5.75;;;1.45;;
71435;SDS011;59251;51.326;12.370;2022-07-29T02:37:10;8.45;;;1.60;;
71435;SDS011;59251;51.326;12.370;2022-07-29T02:39:36;7.40;;;1.70;;
71435;SDS011;59251;51.326;12.370;2022-07-29T02:42:05;9.90;;;1.83;;
71435;SDS011;59251;51.326;12.370;2022-07-29T02:44:34;8.45;;;1.70;;
71435;SDS011;59251;51.326;12.370;2022-07-29T02:47:11;10.90;;;1.70;;
71435;SDS011;59251;51.326;12.370;2022-07-29T02:55:17;8.40;;;1.50;;
71435;SDS011;59251;51.326;12.370;2022-07-29T03:00:27;6.83;;;1.60;;
71435;SDS011;59251;51.326;12.370;2022-07-29T03:02:55;9.30;;;1.73;;
71435;SDS011;59251;51.326;12.370;2022-07-29T03:05:23;8.35;;;1.38;;
71435;SDS011;59251;51.326;12.370;2022-07-29T03:07:51;7.13;;;1.52;;
71435;SDS011;59251;51.326;12.370;2022-07-29T03:10:20;6.22;;;1.40;;
71435;SDS011;59251;51.326;12.370;2022-07-29T03:12:46;8.60;;;1.50;;
71435;SDS011;59251;51.326;12.370;2022-07-29T03:15:13;7.85;;;1.42;;
71435;SDS011;59251;51.326;12.370;2022-07-29T03:17:39;10.00;;;1.80;;
71435;SDS011;59251;51.326;12.370;2022-07-29T03:20:06;6.82;;;1.40;;
71435;SDS011;59251;51.326;12.370;2022-07-29T03:22:32;7.67;;;1.50;;
71435;SDS011;59251;51.326;12.370;2022-07-29T03:24:58;7.78;;;1.45;;
71435;SDS011;59251;51.326;12.370;2022-07-29T03:27:32;6.82;;;1.30;;
71435;SDS011;59251;51.326;12.370;2022-07-29T03:29:59;6.83;;;1.33;;
71435;SDS011;59251;51.326;12.370;2022-07-29T03:32:24;8.33;;;1.67;;
71435;SDS011;59251;51.326;12.370;2022-07-29T03:34:50;8.53;;;1.90;;
71435;SDS011;59251;51.326;12.370;2022-07-29T03:37:15;7.40;;;1.70;;
71435;SDS011;59251;51.326;12.370;2022-07-29T03:39:40;8.40;;;1.47;;
71435;SDS011;59251;51.326;12.370;2022-07-29T03:42:08;7.78;;;1.40;;
71435;SDS011;59251;51.326;12.370;2022-07-29T03:44:37;7.28;;;1.70;;
71435;SDS011;59251;51.326;12.370;2022-07-29T03:47:05;7.67;;;1.30;;
71435;SDS011;59251;51.326;12.370;2022-07-29T03:49:33;7.45;;;1.75;;
71435;SDS011;59251;51.326;12.370;2022-07-29T03:52:01;7.88;;;1.60;;
71435;SDS011;59251;51.326;12.370;2022-07-29T03:54:27;9.38;;;1.70;;
71435;SDS011;59251;51.326;12.370;2022-07-29T03:56:53;7.13;;;1.53;;
71435;SDS011;59251;51.326;12.370;2022-07-29T03:59:20;8.05;;;1.45;;
71435;SDS011;59251;51.326;12.370;2022-07-29T04:01:46;10.33;;;1.80;;
71435;SDS011;59251;51.326;12.370;2022-07-29T04:04:13;8.90;;;1.63;;
71435;SDS011;59251;51.326;12.370;2022-07-29T04:06:40;9.60;;;1.90;;
71435;SDS011;59251;51.326;12.370;2022-07-29T04:09:07;8.23;;;1.50;;
71435;SDS011;59251;51.326;12.370;2022-07-29T04:11:33;7.73;;;1.60;;
71435;SDS011;59251;51.326;12.370;2022-07-29T04:13:59;9.52;;;1.70;;
71435;SDS011;59251;51.326;12.370;2022-07-29T04:16:24;8.90;;;1.60;;
71435;SDS011;59251;51.326;12.370;2022-07-29T04:18:50;9.52;;;1.83;;
71435;SDS011;59251;51.326;12.370;2022-07-29T04:21:15;8.37;;;2.20;;
71435;SDS011;59251;51.326;12.370;2022-07-29T04:23:40;7.73;;;1.60;;
71435;SDS011;59251;51.326;12.370;2022-07-29T04:26:06;6.30;;;1.60;;
71435;SDS011;59251;51.326;12.370;2022-07-29T04:28:34;7.15;;;1.60;;
71435;SDS011;59251;51.326;12.370;2022-07-29T04:31:00;6.90;;;1.60;;
71435;SDS011;59251;51.326;12.370;2022-07-29T04:33:25;10.38;;;2.00;;
71435;SDS011;59251;51.326;12.370;2022-07-29T04:35:51;7.10;;;1.43;;
71435;SDS011;59251;51.326;12.370;2022-07-29T04:38:16;5.87;;;1.70;;
71435;SDS011;59251;51.326;12.370;2022-07-29T04:40:42;7.43;;;1.67;;
71435;SDS011;59251;51.326;12.370;2022-07-29T04:43:07;7.68;;;1.63;;
71435;SDS011;59251;51.326;12.370;2022-07-29T04:45:32;5.20;;;1.60;;
71435;SDS011;59251;51.326;12.370;2022-07-29T04:47:58;7.93;;;1.77;;
71435;SDS011;59251;51.326;12.370;2022-07-29T04:50:23;8.43;;;1.80;;
71435;SDS011;59251;51.326;12.370;2022-07-29T04:52:49;7.85;;;1.80;;
71435;SDS011;59251;51.326;12.370;2022-07-29T04:55:14;8.60;;;1.90;;
71435;SDS011;59251;51.326;12.370;2022-07-29T04:57:40;6.90;;;1.50;;
71435;SDS011;59251;51.326;12.370;2022-07-29T05:00:05;7.13;;;1.70;;
71435;SDS011;59251;51.326;12.370;2022-07-29T05:02:32;8.07;;;1.90;;
71435;SDS011;59251;51.326;12.370;2022-07-29T05:04:57;8.83;;;1.80;;
71435;SDS011;59251;51.326;12.370;2022-07-29T05:07:22;8.67;;;2.10;;
71435;SDS011;59251;51.326;12.370;2022-07-29T05:09:48;9.82;;;2.25;;
71435;SDS011;59251;51.326;12.370;2022-07-29T05:12:13;9.33;;;1.80;;
71435;SDS011;59251;51.326;12.370;2022-07-29T05:14:39;6.60;;;1.97;;
71435;SDS011;59251;51.326;12.370;2022-07-29T05:17:04;7.32;;;1.92;;
71435;SDS011;59251;51.326;12.370;2022-07-29T05:19:30;8.20;;;1.80;;
71435;SDS011;59251;51.326;12.370;2022-07-29T05:21:56;8.13;;;2.03;;
71435;SDS011;59251;51.326;12.370;2022-07-29T05:24:21;6.53;;;1.63;;
71435;SDS011;59251;51.326;12.370;2022-07-29T05:26:47;8.63;;;2.03;;
71435;SDS011;59251;51.326;12.370;2022-07-29T05:29:12;8.23;;;2.00;;
71435;SDS011;59251;51.326;12.370;2022-07-29T05:31:38;10.67;;;2.07;;
71435;SDS011;59251;51.326;12.370;2022-07-29T05:34:03;8.63;;;1.80;;
71435;SDS011;59251;51.326;12.370;2022-07-29T05:36:28;7.80;;;1.97;;
71435;SDS011;59251;51.326;12.370;2022-07-29T05:38:54;8.80;;;2.10;;
71435;SDS011;59251;51.326;12.370;2022-07-29T05:41:19;8.20;;;2.03;;
71435;SDS011;59251;51.326;12.370;2022-07-29T05:43:45;10.17;;;3.60;;
71435;SDS011;59251;51.326;12.370;2022-07-29T05:46:10;8.00;;;2.28;;
71435;SDS011;59251;51.326;12.370;2022-07-29T05:48:36;7.53;;;2.20;;
71435;SDS011;59251;51.326;12.370;2022-07-29T05:51:01;10.63;;;2.10;;
71435;SDS011;59251;51.326;12.370;2022-07-29T05:53:27;13.50;;;2.45;;
71435;SDS011;59251;51.326;12.370;2022-07-29T05:55:52;10.00;;;2.10;;
71435;SDS011;59251;51.326;12.370;2022-07-29T05:58:18;11.10;;;2.00;;
71435;SDS011;59251;51.326;12.370;2022-07-29T06:00:44;8.75;;;1.90;;
71435;SDS011;59251;51.326;12.370;2022-07-29T06:03:10;8.75;;;1.80;;
71435;SDS011;59251;51.326;12.370;2022-07-29T06:05:35;7.80;;;1.93;;
71435;SDS011;59251;51.326;12.370;2022-07-29T06:08:02;8.83;;;1.80;;
71435;SDS011;59251;51.326;12.370;2022-07-29T06:10:28;8.70;;;2.00;;
71435;SDS011;59251;51.326;12.370;2022-07-29T06:12:54;10.27;;;2.20;;
71435;SDS011;59251;51.326;12.370;2022-07-29T06:15:19;7.10;;;1.83;;
71435;SDS011;59251;51.326;12.370;2022-07-29T06:17:45;8.27;;;1.85;;
71435;SDS011;59251;51.326;12.370;2022-07-29T06:20:10;8.53;;;1.87;;
71435;SDS011;59251;51.326;12.370;2022-07-29T06:22:36;8.40;;;2.20;;
71435;SDS011;59251;51.326;12.370;2022-07-29T06:25:01;11.53;;;2.27;;
71435;SDS011;59251;51.326;12.370;2022-07-29T06:27:27;7.40;;;1.88;;
71435;SDS011;59251;51.326;12.370;2022-07-29T06:29:52;8.67;;;2.07;;
71435;SDS011;59251;51.326;12.370;2022-07-29T06:32:19;8.32;;;2.10;;
71435;SDS011;59251;51.326;12.370;2022-07-29T06:34:44;13.97;;;2.37;;
71435;SDS011;59251;51.326;12.370;2022-07-29T06:37:09;10.13;;;1.90;;
71435;SDS011;59251;51.326;12.370;2022-07-29T06:39:35;10.47;;;2.00;;
71435;SDS011;59251;51.326;12.370;2022-07-29T06:42:01;10.18;;;2.30;;
71435;SDS011;59251;51.326;12.370;2022-07-29T06:44:28;7.97;;;2.00;;
71435;SDS011;59251;51.326;12.370;2022-07-29T06:46:54;10.02;;;2.30;;
71435;SDS011;59251;51.326;12.370;2022-07-29T06:49:20;8.63;;;2.17;;
71435;SDS011;59251;51.326;12.370;2022-07-29T06:51:46;8.77;;;2.23;;
71435;SDS011;59251;51.326;12.370;2022-07-29T06:54:11;11.33;;;2.20;;
71435;SDS011;59251;51.326;12.370;2022-07-29T06:56:36;12.45;;;2.50;;
71435;SDS011;59251;51.326;12.370;2022-07-29T06:59:03;9.77;;;2.40;;
71435;SDS011;59251;51.326;12.370;2022-07-29T07:01:29;10.55;;;2.35;;
71435;SDS011;59251;51.326;12.370;2022-07-29T07:03:54;8.57;;;2.33;;
71435;SDS011;59251;51.326;12.370;2022-07-29T07:06:20;8.63;;;2.65;;
71435;SDS011;59251;51.326;12.370;2022-07-29T07:08:45;9.43;;;1.70;;
71435;SDS011;59251;51.326;12.370;2022-07-29T07:11:11;9.53;;;2.47;;
71435;SDS011;59251;51.326;12.370;2022-07-29T07:13:37;13.50;;;2.53;;
71435;SDS011;59251;51.326;12.370;2022-07-29T07:16:02;9.40;;;2.40;;
71435;SDS011;59251;51.326;12.370;2022-07-29T07:18:28;10.95;;;2.58;;
71435;SDS011;59251;51.326;12.370;2022-07-29T07:20:54;13.13;;;2.97;;
71435;SDS011;59251;51.326;12.370;2022-07-29T07:23:21;14.57;;;3.25;;
71435;SDS011;59251;51.326;12.370;2022-07-29T07:25:47;10.20;;;2.88;;
71435;SDS011;59251;51.326;12.370;2022-07-29T07:28:12;10.23;;;3.60;;
71435;SDS011;59251;51.326;12.370;2022-07-29T07:30:38;13.60;;;3.60;;
71435;SDS011;59251;51.326;12.370;2022-07-29T07:33:04;11.15;;;3.35;;
71435;SDS011;59251;51.326;12.370;2022-07-29T07:35:29;13.13;;;3.27;;
71435;SDS011;59251;51.326;12.370;2022-07-29T07:37:55;14.43;;;3.30;;
71435;SDS011;59251;51.326;12.370;2022-07-29T07:40:21;11.25;;;3.65;;
71435;SDS011;59251;51.326;12.370;2022-07-29T07:42:47;9.13;;;3.47;;
71435;SDS011;59251;51.326;12.370;2022-07-29T07:45:12;9.48;;;3.55;;
71435;SDS011;59251;51.326;12.370;2022-07-29T07:47:38;13.37;;;4.27;;
71435;SDS011;59251;51.326;12.370;2022-07-29T07:50:05;11.43;;;3.80;;
71435;SDS011;59251;51.326;12.370;2022-07-29T07:52:32;10.27;;;3.78;;
71435;SDS011;59251;51.326;12.370;2022-07-29T07:54:57;12.97;;;3.73;;
71435;SDS011;59251;51.326;12.370;2022-07-29T07:57:23;12.85;;;3.60;;
71435;SDS011;59251;51.326;12.370;2022-07-29T07:59:49;9.10;;;3.53;;
71435;SDS011;59251;51.326;12.370;2022-07-29T08:02:14;14.23;;;3.97;;
71435;SDS011;59251;51.326;12.370;2022-07-29T08:04:39;12.00;;;3.50;;
71435;SDS011;59251;51.326;12.370;2022-07-29T08:07:06;16.40;;;4.22;;
71435;SDS011;59251;51.326;12.370;2022-07-29T08:09:32;9.65;;;3.50;;
71435;SDS011;59251;51.326;12.370;2022-07-29T08:11:59;12.75;;;3.58;;
71435;SDS011;59251;51.326;12.370;2022-07-29T08:14:27;13.50;;;3.40;;
71435;SDS011;59251;51.326;12.370;2022-07-29T08:16:52;12.77;;;3.90;;
71435;SDS011;59251;51.326;12.370;2022-07-29T08:19:18;11.23;;;3.40;;
71435;SDS011;59251;51.326;12.370;2022-07-29T08:21:44;9.90;;;3.90;;
71435;SDS011;59251;51.326;12.370;2022-07-29T08:24:09;14.60;;;3.47;;
71435;SDS011;59251;51.326;12.370;2022-07-29T08:26:53;12.50;;;3.50;;
71435;SDS011;59251;51.326;12.370;2022-07-29T08:29:19;11.03;;;3.20;;
71435;SDS011;59251;51.326;12.370;2022-07-29T08:31:44;13.20;;;3.30;;
71435;SDS011;59251;51.326;12.370;2022-07-29T08:34:10;11.55;;;3.60;;
71435;SDS011;59251;51.326;12.370;2022-07-29T08:36:36;10.75;;;3.30;;
71435;SDS011;59251;51.326;12.370;2022-07-29T08:39:02;12.00;;;3.07;;
71435;SDS011;59251;51.326;12.370;2022-07-29T08:41:27;18.23;;;3.90;;
71435;SDS011;59251;51.326;12.370;2022-07-29T08:43:53;10.77;;;3.85;;
71435;SDS011;59251;51.326;12.370;2022-07-29T08:46:19;11.77;;;2.97;;
71435;SDS011;59251;51.326;12.370;2022-07-29T08:48:45;12.30;;;3.13;;
71435;SDS011;59251;51.326;12.370;2022-07-29T08:51:15;10.33;;;3.07;;
71435;SDS011;59251;51.326;12.370;2022-07-29T08:53:43;12.35;;;2.83;;
71435;SDS011;59251;51.326;12.370;2022-07-29T08:56:12;12.20;;;2.90;;
71435;SDS011;59251;51.326;12.370;2022-07-29T08:58:39;8.35;;;2.30;;
71435;SDS011;59251;51.326;12.370;2022-07-29T09:01:04;11.77;;;2.57;;
71435;SDS011;59251;51.326;12.370;2022-07-29T09:03:32;7.07;;;2.60;;
71435;SDS011;59251;51.326;12.370;2022-07-29T09:06:01;9.20;;;2.88;;
71435;SDS011;59251;51.326;12.370;2022-07-29T09:08:27;8.35;;;2.70;;
71435;SDS011;59251;51.326;12.370;2022-07-29T09:10:53;9.13;;;2.90;;
71435;SDS011;59251;51.326;12.370;2022-07-29T09:13:21;11.83;;;3.60;;
71435;SDS011;59251;51.326;12.370;2022-07-29T09:15:46;10.52;;;3.00;;
71435;SDS011;59251;51.326;12.370;2022-07-29T09:18:12;10.10;;;3.35;;
71435;SDS011;59251;51.326;12.370;2022-07-29T09:21:04;10.07;;;3.60;;
71435;SDS011;59251;51.326;12.370;2022-07-29T09:26:35;12.65;;;5.40;;
71435;SDS011;59251;51.326;12.370;2022-07-29T09:29:22;13.63;;;5.57;;
71435;SDS011;59251;51.326;12.370;2022-07-29T09:31:50;11.45;;;4.90;;
71435;SDS011;59251;51.326;12.370;2022-07-29T09:34:20;12.00;;;4.37;;
71435;SDS011;59251;51.326;12.370;2022-07-29T09:36:51;13.57;;;4.10;;
71435;SDS011;59251;51.326;12.370;2022-07-29T09:39:37;11.57;;;4.22;;
71435;SDS011;59251;51.326;12.370;2022-07-29T09:42:09;9.40;;;4.10;;
71435;SDS011;59251;51.326;12.370;2022-07-29T09:44:45;10.68;;;4.00;;
71435;SDS011;59251;51.326;12.370;2022-07-29T09:47:13;13.73;;;3.67;;
71435;SDS011;59251;51.326;12.370;2022-07-29T09:49:52;10.20;;;4.32;;
71435;SDS011;59251;51.326;12.370;2022-07-29T09:52:18;9.02;;;3.95;;
71435;SDS011;59251;51.326;12.370;2022-07-29T09:54:44;13.30;;;4.55;;
71435;SDS011;59251;51.326;12.370;2022-07-29T09:57:21;13.03;;;3.97;;
71435;SDS011;59251;51.326;12.370;2022-07-29T09:59:59;15.25;;;4.05;;
71435;SDS011;59251;51.326;12.370;2022-07-29T10:02:32;10.45;;;3.50;;
71435;SDS011;59251;51.326;12.370;2022-07-29T10:05:00;10.77;;;3.50;;
71435;SDS011;59251;51.326;12.370;2022-07-29T10:07:26;10.93;;;4.05;;
71435;SDS011;59251;51.326;12.370;2022-07-29T10:10:08;10.52;;;3.70;;
71435;SDS011;59251;51.326;12.370;2022-07-29T10:12:34;9.73;;;3.50;;
71435;SDS011;59251;51.326;12.370;2022-07-29T10:15:14;8.70;;;3.22;;
71435;SDS011;59251;51.326;12.370;2022-07-29T10:17:40;9.77;;;3.30;;
71435;SDS011;59251;51.326;12.370;2022-07-29T10:20:07;8.07;;;2.83;;
71435;SDS011;59251;51.326;12.370;2022-07-29T10:22:33;12.23;;;3.00;;
71435;SDS011;59251;51.326;12.370;2022-07-29T10:24:59;9.43;;;3.00;;
71435;SDS011;59251;51.326;12.370;2022-07-29T10:27:24;9.13;;;2.95;;
71435;SDS011;59251;51.326;12.370;2022-07-29T10:29:50;8.70;;;2.37;;
71435;SDS011;59251;51.326;12.370;2022-07-29T10:32:21;8.90;;;2.90;;
71435;SDS011;59251;51.326;12.370;2022-07-29T10:35:12;6.80;;;2.90;;
71435;SDS011;59251;51.326;12.370;2022-07-29T10:43:35;9.03;;;2.40;;
71435;SDS011;59251;51.326;12.370;2022-07-29T10:46:05;8.30;;;2.85;;
71435;SDS011;59251;51.326;12.370;2022-07-29T10:48:31;9.45;;;2.53;;
71435;SDS011;59251;51.326;12.370;2022-07-29T10:50:57;6.70;;;2.20;;
71435;SDS011;59251;51.326;12.370;2022-07-29T10:53:25;8.07;;;2.38;;
71435;SDS011;59251;51.326;12.370;2022-07-29T10:56:28;8.48;;;2.40;;
71435;SDS011;59251;51.326;12.370;2022-07-29T11:01:45;7.35;;;2.40;;
71435;SDS011;59251;51.326;12.370;2022-07-29T11:04:14;6.45;;;2.05;;
71435;SDS011;59251;51.326;12.370;2022-07-29T11:09:29;9.90;;;2.25;;
71435;SDS011;59251;51.326;12.370;2022-07-29T11:11:58;6.57;;;2.20;;
71435;SDS011;59251;51.326;12.370;2022-07-29T11:17:17;6.77;;;2.50;;
71435;SDS011;59251;51.326;12.370;2022-07-29T11:19:42;6.93;;;2.08;;
71435;SDS011;59251;51.326;12.370;2022-07-29T11:22:09;10.52;;;2.80;;
71435;SDS011;59251;51.326;12.370;2022-07-29T11:24:35;9.80;;;2.45;;
71435;SDS011;59251;51.326;12.370;2022-07-29T11:27:11;8.13;;;2.00;;
71435;SDS011;59251;51.326;12.370;2022-07-29T11:29:41;9.15;;;2.60;;
71435;SDS011;59251;51.326;12.370;2022-07-29T11:32:15;6.10;;;2.20;;
71435;SDS011;59251;51.326;12.370;2022-07-29T11:34:42;6.57;;;2.42;;
71435;SDS011;59251;51.326;12.370;2022-07-29T11:39:38;7.93;;;2.30;;
71435;SDS011;59251;51.326;12.370;2022-07-29T11:47:20;8.57;;;3.17;;
71435;SDS011;59251;51.326;12.370;2022-07-29T11:49:46;11.98;;;2.95;;
71435;SDS011;59251;51.326;12.370;2022-07-29T11:52:12;8.48;;;2.90;;
71435;SDS011;59251;51.326;12.370;2022-07-29T11:54:38;7.57;;;2.93;;
71435;SDS011;59251;51.326;12.370;2022-07-29T11:57:07;9.57;;;3.20;;
71435;SDS011;59251;51.326;12.370;2022-07-29T11:59:38;11.95;;;3.20;;
71435;SDS011;59251;51.326;12.370;2022-07-29T12:02:04;8.80;;;3.10;;
71435;SDS011;59251;51.326;12.370;2022-07-29T12:04:30;11.93;;;3.00;;
71435;SDS011;59251;51.326;12.370;2022-07-29T12:06:55;7.63;;;2.63;;
71435;SDS011;59251;51.326;12.370;2022-07-29T12:09:21;11.27;;;3.30;;
71435;SDS011;59251;51.326;12.370;2022-07-29T12:11:48;11.50;;;3.17;;
71435;SDS011;59251;51.326;12.370;2022-07-29T12:14:24;8.35;;;3.50;;
71435;SDS011;59251;51.326;12.370;2022-07-29T12:16:50;7.00;;;2.90;;
71435;SDS011;59251;51.326;12.370;2022-07-29T12:19:16;10.70;;;4.30;;
71435;SDS011;59251;51.326;12.370;2022-07-29T12:24:09;9.57;;;3.20;;
71435;SDS011;59251;51.326;12.370;2022-07-29T12:26:35;11.17;;;3.47;;
71435;SDS011;59251;51.326;12.370;2022-07-29T12:29:01;11.15;;;3.05;;
71435;SDS011;59251;51.326;12.370;2022-07-29T12:31:27;9.10;;;3.38;;
71435;SDS011;59251;51.326;12.370;2022-07-29T12:33:52;11.13;;;3.33;;
71435;SDS011;59251;51.326;12.370;2022-07-29T12:36:19;10.90;;;3.55;;
71435;SDS011;59251;51.326;12.370;2022-07-29T12:38:44;9.43;;;3.37;;
71435;SDS011;59251;51.326;12.370;2022-07-29T12:41:10;8.73;;;3.10;;
71435;SDS011;59251;51.326;12.370;2022-07-29T12:43:36;9.10;;;3.20;;
71435;SDS011;59251;51.326;12.370;2022-07-29T12:46:14;7.97;;;3.13;;
71435;SDS011;59251;51.326;12.370;2022-07-29T12:48:40;7.90;;;3.30;;
71435;SDS011;59251;51.326;12.370;2022-07-29T12:51:07;10.07;;;2.80;;
71435;SDS011;59251;51.326;12.370;2022-07-29T12:53:35;10.80;;;3.28;;
71435;SDS011;59251;51.326;12.370;2022-07-29T12:56:01;7.70;;;3.25;;
71435;SDS011;59251;51.326;12.370;2022-07-29T13:01:10;7.83;;;3.03;;
71435;SDS011;59251;51.326;12.370;2022-07-29T13:06:33;12.50;;;3.83;;
71435;SDS011;59251;51.326;12.370;2022-07-29T13:09:10;9.85;;;3.55;;
71435;SDS011;59251;51.326;12.370;2022-07-29T13:11:43;8.80;;;3.70;;
71435;SDS011;59251;51.326;12.370;2022-07-29T13:14:29;9.43;;;3.07;;
71435;SDS011;59251;51.326;12.370;2022-07-29T13:17:14;8.85;;;3.42;;
71435;SDS011;59251;51.326;12.370;2022-07-29T13:19:42;8.77;;;3.30;;
71435;SDS011;59251;51.326;12.370;2022-07-29T13:22:13;8.75;;;3.45;;
71435;SDS011;59251;51.326;12.370;2022-07-29T13:27:23;11.00;;;3.37;;
71435;SDS011;59251;51.326;12.370;2022-07-29T13:29:52;9.38;;;3.20;;
71435;SDS011;59251;51.326;12.370;2022-07-29T13:32:21;7.65;;;3.58;;
71435;SDS011;59251;51.326;12.370;2022-07-29T13:34:47;10.65;;;3.08;;
71435;SDS011;59251;51.326;12.370;2022-07-29T13:37:13;7.60;;;3.13;;
71435;SDS011;59251;51.326;12.370;2022-07-29T13:39:39;8.00;;;3.45;;
71435;SDS011;59251;51.326;12.370;2022-07-29T13:42:05;9.57;;;3.22;;
71435;SDS011;59251;51.326;12.370;2022-07-29T13:44:31;10.13;;;4.00;;
71435;SDS011;59251;51.326;12.370;2022-07-29T13:46:57;8.63;;;3.88;;
71435;SDS011;59251;51.326;12.370;2022-07-29T13:49:23;8.40;;;3.38;;
71435;SDS011;59251;51.326;12.370;2022-07-29T13:51:49;7.77;;;3.43;;
71435;SDS011;59251;51.326;12.370;2022-07-29T13:54:15;10.67;;;3.90;;
71435;SDS011;59251;51.326;12.370;2022-07-29T13:56:40;9.60;;;3.70;;
71435;SDS011;59251;51.326;12.370;2022-07-29T13:59:06;8.97;;;3.50;;
71435;SDS011;59251;51.326;12.370;2022-07-29T14:01:32;8.90;;;3.50;;
71435;SDS011;59251;51.326;12.370;2022-07-29T14:03:59;8.15;;;3.60;;
71435;SDS011;59251;51.326;12.370;2022-07-29T14:06:24;10.83;;;3.80;;
71435;SDS011;59251;51.326;12.370;2022-07-29T14:08:50;8.67;;;3.63;;
71435;SDS011;59251;51.326;12.370;2022-07-29T14:11:15;8.15;;;3.60;;
71435;SDS011;59251;51.326;12.370;2022-07-29T14:13:40;10.70;;;3.70;;
71435;SDS011;59251;51.326;12.370;2022-07-29T14:16:06;16.27;;;4.10;;
71435;SDS011;59251;51.326;12.370;2022-07-29T14:18:32;10.18;;;3.70;;
71435;SDS011;59251;51.326;12.370;2022-07-29T14:20:58;8.98;;;3.83;;
71435;SDS011;59251;51.326;12.370;2022-07-29T14:23:23;11.73;;;3.80;;
71435;SDS011;59251;51.326;12.370;2022-07-29T14:25:48;9.30;;;3.50;;
71435;SDS011;59251;51.326;12.370;2022-07-29T14:28:14;12.93;;;3.77;;
71435;SDS011;59251;51.326;12.370;2022-07-29T14:30:39;8.83;;;3.83;;
71435;SDS011;59251;51.326;12.370;2022-07-29T14:33:05;9.48;;;4.00;;
71435;SDS011;59251;51.326;12.370;2022-07-29T14:35:30;9.33;;;4.10;;
71435;SDS011;59251;51.326;12.370;2022-07-29T14:37:56;10.30;;;3.87;;
71435;SDS011;59251;51.326;12.370;2022-07-29T14:40:22;8.15;;;4.03;;
71435;SDS011;59251;51.326;12.370;2022-07-29T14:42:47;9.00;;;4.10;;
71435;SDS011;59251;51.326;12.370;2022-07-29T14:45:12;8.13;;;3.53;;
71435;SDS011;59251;51.326;12.370;2022-07-29T14:47:38;10.05;;;3.60;;
71435;SDS011;59251;51.326;12.370;2022-07-29T14:50:04;8.43;;;3.60;;
71435;SDS011;59251;51.326;12.370;2022-07-29T14:52:30;9.57;;;3.90;;
71435;SDS011;59251;51.326;12.370;2022-07-29T14:54:56;8.88;;;4.10;;
71435;SDS011;59251;51.326;12.370;2022-07-29T14:57:22;7.67;;;3.90;;
71435;SDS011;59251;51.326;12.370;2022-07-29T14:59:47;10.80;;;3.50;;
71435;SDS011;59251;51.326;12.370;2022-07-29T15:02:12;10.23;;;4.03;;
71435;SDS011;59251;51.326;12.370;2022-07-29T15:04:38;8.30;;;3.60;;
71435;SDS011;59251;51.326;12.370;2022-07-29T15:07:03;10.33;;;3.70;;
71435;SDS011;59251;51.326;12.370;2022-07-29T15:09:29;10.20;;;3.80;;
71435;SDS011;59251;51.326;12.370;2022-07-29T15:11:54;7.75;;;3.60;;
71435;SDS011;59251;51.326;12.370;2022-07-29T15:14:20;10.67;;;3.83;;
71435;SDS011;59251;51.326;12.370;2022-07-29T15:16:45;9.43;;;3.80;;
71435;SDS011;59251;51.326;12.370;2022-07-29T15:19:11;10.20;;;4.00;;
71435;SDS011;59251;51.326;12.370;2022-07-29T15:21:36;9.30;;;3.70;;
71435;SDS011;59251;51.326;12.370;2022-07-29T15:24:02;8.82;;;3.90;;
71435;SDS011;59251;51.326;12.370;2022-07-29T15:26:28;9.83;;;3.80;;
71435;SDS011;59251;51.326;12.370;2022-07-29T15:28:53;10.40;;;4.20;;
71435;SDS011;59251;51.326;12.370;2022-07-29T15:31:20;10.13;;;3.88;;
71435;SDS011;59251;51.326;12.370;2022-07-29T15:33:46;9.43;;;3.90;;